New Hartford, Iowa
Current Conditions -  °F | °C
As of 7:54 PM on Wednesday 17 Dec 2014 (Local Time) from KALO Reporting Station
Clear Clear  
Wind Chill:   Ceiling: Unl
Heat Index: 15°   Visibility: 10mi
Dew Point: 13°   Wind: 8mph
Humidity: 91%   Direction: 340°NNW
Pressure: 30.29"   Gusts: NA
Location:  42.57°N, 92.62°W
Report Text: KALO 180154Z AUTO 34007KT 10SM CLR M09/M11 A3029 RMK AO2 SLP274 T10941106
Loading
Personal Weather Stations






























Interactive Weather Map New forecast layout! Learn more

10-Day Weather Forecast

Advertisements
Track Severe Weather on mobile